sensor_id;sensor_type;location;lat;lon;timestamp;P1;durP1;ratioP1;P2;durP2;ratioP2
23376;SDS011;14353;46.070;13.222;2023-09-08T00:00:17;4.25;;;3.42;;
23376;SDS011;14353;46.070;13.222;2023-09-08T00:02:43;5.65;;;3.95;;
23376;SDS011;14353;46.070;13.222;2023-09-08T00:05:09;7.28;;;3.47;;
23376;SDS011;14353;46.070;13.222;2023-09-08T00:07:35;5.60;;;3.53;;
23376;SDS011;14353;46.070;13.222;2023-09-08T00:10:01;6.88;;;3.70;;
23376;SDS011;14353;46.070;13.222;2023-09-08T00:12:27;5.90;;;3.60;;
23376;SDS011;14353;46.070;13.222;2023-09-08T00:14:52;5.47;;;3.72;;
23376;SDS011;14353;46.070;13.222;2023-09-08T00:17:18;6.03;;;3.83;;
23376;SDS011;14353;46.070;13.222;2023-09-08T00:19:44;7.65;;;3.70;;
23376;SDS011;14353;46.070;13.222;2023-09-08T00:22:09;7.90;;;3.80;;
23376;SDS011;14353;46.070;13.222;2023-09-08T00:24:35;7.55;;;3.95;;
23376;SDS011;14353;46.070;13.222;2023-09-08T00:27:01;5.38;;;3.88;;
23376;SDS011;14353;46.070;13.222;2023-09-08T00:29:27;4.30;;;3.65;;
23376;SDS011;14353;46.070;13.222;2023-09-08T00:31:52;4.10;;;3.70;;
23376;SDS011;14353;46.070;13.222;2023-09-08T00:34:18;5.95;;;3.92;;
23376;SDS011;14353;46.070;13.222;2023-09-08T00:36:44;6.35;;;3.80;;
23376;SDS011;14353;46.070;13.222;2023-09-08T00:39:09;7.93;;;3.95;;
23376;SDS011;14353;46.070;13.222;2023-09-08T00:41:35;5.00;;;4.03;;
23376;SDS011;14353;46.070;13.222;2023-09-08T00:44:01;6.97;;;4.03;;
23376;SDS011;14353;46.070;13.222;2023-09-08T00:46:27;4.82;;;3.95;;
23376;SDS011;14353;46.070;13.222;2023-09-08T00:48:53;4.63;;;3.88;;
23376;SDS011;14353;46.070;13.222;2023-09-08T00:51:20;5.00;;;3.70;;
23376;SDS011;14353;46.070;13.222;2023-09-08T00:53:46;4.05;;;3.60;;
23376;SDS011;14353;46.070;13.222;2023-09-08T00:56:11;8.38;;;4.10;;
23376;SDS011;14353;46.070;13.222;2023-09-08T00:58:38;5.43;;;3.95;;
23376;SDS011;14353;46.070;13.222;2023-09-08T01:01:04;5.50;;;4.07;;
23376;SDS011;14353;46.070;13.222;2023-09-08T01:03:30;5.72;;;3.95;;
23376;SDS011;14353;46.070;13.222;2023-09-08T01:05:56;7.72;;;4.20;;
23376;SDS011;14353;46.070;13.222;2023-09-08T01:08:22;5.07;;;3.63;;
23376;SDS011;14353;46.070;13.222;2023-09-08T01:10:48;6.93;;;3.80;;
23376;SDS011;14353;46.070;13.222;2023-09-08T01:13:14;4.63;;;3.67;;
23376;SDS011;14353;46.070;13.222;2023-09-08T01:15:39;5.32;;;3.83;;
23376;SDS011;14353;46.070;13.222;2023-09-08T01:18:05;5.88;;;3.90;;
23376;SDS011;14353;46.070;13.222;2023-09-08T01:23:35;6.57;;;3.80;;
23376;SDS011;14353;46.070;13.222;2023-09-08T01:26:17;6.65;;;3.53;;
23376;SDS011;14353;46.070;13.222;2023-09-08T01:28:45;5.88;;;3.80;;
23376;SDS011;14353;46.070;13.222;2023-09-08T01:31:15;3.97;;;3.33;;
23376;SDS011;14353;46.070;13.222;2023-09-08T01:33:41;4.65;;;3.88;;
23376;SDS011;14353;46.070;13.222;2023-09-08T01:36:08;6.20;;;3.95;;
23376;SDS011;14353;46.070;13.222;2023-09-08T01:38:34;4.88;;;3.55;;
23376;SDS011;14353;46.070;13.222;2023-09-08T01:40:59;7.57;;;4.53;;
23376;SDS011;14353;46.070;13.222;2023-09-08T01:43:26;5.55;;;4.03;;
23376;SDS011;14353;46.070;13.222;2023-09-08T01:45:52;5.15;;;3.60;;
23376;SDS011;14353;46.070;13.222;2023-09-08T01:48:18;4.18;;;3.70;;
23376;SDS011;14353;46.070;13.222;2023-09-08T01:50:44;6.88;;;4.10;;
23376;SDS011;14353;46.070;13.222;2023-09-08T01:53:11;7.75;;;4.15;;
23376;SDS011;14353;46.070;13.222;2023-09-08T01:55:36;4.70;;;3.80;;
23376;SDS011;14353;46.070;13.222;2023-09-08T01:58:02;4.28;;;3.85;;
23376;SDS011;14353;46.070;13.222;2023-09-08T02:00:28;7.70;;;4.00;;
23376;SDS011;14353;46.070;13.222;2023-09-08T02:02:54;4.70;;;3.85;;
23376;SDS011;14353;46.070;13.222;2023-09-08T02:05:19;7.60;;;3.65;;
23376;SDS011;14353;46.070;13.222;2023-09-08T02:07:45;4.72;;;3.72;;
23376;SDS011;14353;46.070;13.222;2023-09-08T02:10:11;4.40;;;3.90;;
23376;SDS011;14353;46.070;13.222;2023-09-08T02:12:36;6.65;;;3.90;;
23376;SDS011;14353;46.070;13.222;2023-09-08T02:15:02;7.10;;;4.00;;
23376;SDS011;14353;46.070;13.222;2023-09-08T02:17:29;7.50;;;3.80;;
23376;SDS011;14353;46.070;13.222;2023-09-08T02:19:57;4.65;;;3.80;;
23376;SDS011;14353;46.070;13.222;2023-09-08T02:22:22;5.10;;;4.00;;
23376;SDS011;14353;46.070;13.222;2023-09-08T02:24:48;4.38;;;3.95;;
23376;SDS011;14353;46.070;13.222;2023-09-08T02:27:14;4.57;;;3.53;;
23376;SDS011;14353;46.070;13.222;2023-09-08T02:29:39;5.10;;;3.97;;
23376;SDS011;14353;46.070;13.222;2023-09-08T02:32:05;3.95;;;3.53;;
23376;SDS011;14353;46.070;13.222;2023-09-08T02:34:33;6.53;;;3.50;;
23376;SDS011;14353;46.070;13.222;2023-09-08T02:37:01;4.45;;;4.05;;
23376;SDS011;14353;46.070;13.222;2023-09-08T02:39:27;4.07;;;3.60;;
23376;SDS011;14353;46.070;13.222;2023-09-08T02:41:53;6.65;;;3.35;;
23376;SDS011;14353;46.070;13.222;2023-09-08T02:44:19;4.82;;;3.80;;
23376;SDS011;14353;46.070;13.222;2023-09-08T02:46:47;4.78;;;3.83;;
23376;SDS011;14353;46.070;13.222;2023-09-08T02:49:13;4.45;;;3.50;;
23376;SDS011;14353;46.070;13.222;2023-09-08T02:51:38;4.28;;;3.70;;
23376;SDS011;14353;46.070;13.222;2023-09-08T02:54:04;5.07;;;4.00;;
23376;SDS011;14353;46.070;13.222;2023-09-08T02:56:30;7.45;;;3.70;;
23376;SDS011;14353;46.070;13.222;2023-09-08T02:58:56;4.65;;;3.92;;
23376;SDS011;14353;46.070;13.222;2023-09-08T03:01:21;4.70;;;3.70;;
23376;SDS011;14353;46.070;13.222;2023-09-08T03:03:47;4.15;;;3.70;;
23376;SDS011;14353;46.070;13.222;2023-09-08T03:06:14;7.28;;;3.95;;
23376;SDS011;14353;46.070;13.222;2023-09-08T03:08:40;4.50;;;3.90;;
23376;SDS011;14353;46.070;13.222;2023-09-08T03:11:07;7.18;;;4.10;;
23376;SDS011;14353;46.070;13.222;2023-09-08T03:13:33;4.90;;;3.83;;
23376;SDS011;14353;46.070;13.222;2023-09-08T03:16:07;4.22;;;3.75;;
23376;SDS011;14353;46.070;13.222;2023-09-08T03:18:33;8.95;;;4.18;;
23376;SDS011;14353;46.070;13.222;2023-09-08T03:21:01;4.55;;;3.60;;
23376;SDS011;14353;46.070;13.222;2023-09-08T03:23:34;5.35;;;3.55;;
23376;SDS011;14353;46.070;13.222;2023-09-08T03:26:01;4.63;;;3.67;;
23376;SDS011;14353;46.070;13.222;2023-09-08T03:28:27;5.05;;;3.80;;
23376;SDS011;14353;46.070;13.222;2023-09-08T03:30:53;4.60;;;3.80;;
23376;SDS011;14353;46.070;13.222;2023-09-08T03:33:18;7.03;;;4.10;;
23376;SDS011;14353;46.070;13.222;2023-09-08T03:35:44;4.22;;;3.83;;
23376;SDS011;14353;46.070;13.222;2023-09-08T03:38:10;4.60;;;3.70;;
23376;SDS011;14353;46.070;13.222;2023-09-08T03:40:38;5.03;;;3.33;;
23376;SDS011;14353;46.070;13.222;2023-09-08T03:43:04;5.80;;;3.72;;
23376;SDS011;14353;46.070;13.222;2023-09-08T03:45:30;4.85;;;3.90;;
23376;SDS011;14353;46.070;13.222;2023-09-08T03:47:55;4.10;;;3.70;;
23376;SDS011;14353;46.070;13.222;2023-09-08T03:50:21;4.45;;;3.83;;
23376;SDS011;14353;46.070;13.222;2023-09-08T03:52:47;5.97;;;4.10;;
23376;SDS011;14353;46.070;13.222;2023-09-08T03:55:12;5.22;;;3.75;;
23376;SDS011;14353;46.070;13.222;2023-09-08T03:57:38;6.65;;;3.92;;
23376;SDS011;14353;46.070;13.222;2023-09-08T04:00:04;4.65;;;4.00;;
23376;SDS011;14353;46.070;13.222;2023-09-08T04:02:31;4.80;;;3.45;;
23376;SDS011;14353;46.070;13.222;2023-09-08T04:04:58;6.45;;;4.00;;
23376;SDS011;14353;46.070;13.222;2023-09-08T04:07:24;5.25;;;4.13;;
23376;SDS011;14353;46.070;13.222;2023-09-08T04:09:49;4.60;;;4.07;;
23376;SDS011;14353;46.070;13.222;2023-09-08T04:12:15;5.85;;;4.00;;
23376;SDS011;14353;46.070;13.222;2023-09-08T04:14:41;5.10;;;3.97;;
23376;SDS011;14353;46.070;13.222;2023-09-08T04:17:06;5.88;;;3.55;;
23376;SDS011;14353;46.070;13.222;2023-09-08T04:19:33;5.68;;;3.97;;
23376;SDS011;14353;46.070;13.222;2023-09-08T04:21:59;4.43;;;3.70;;
23376;SDS011;14353;46.070;13.222;2023-09-08T04:24:24;5.35;;;4.13;;
23376;SDS011;14353;46.070;13.222;2023-09-08T04:26:50;5.40;;;3.90;;
23376;SDS011;14353;46.070;13.222;2023-09-08T04:29:16;6.93;;;4.07;;
23376;SDS011;14353;46.070;13.222;2023-09-08T04:31:42;4.57;;;4.05;;
23376;SDS011;14353;46.070;13.222;2023-09-08T04:34:07;5.03;;;3.72;;
23376;SDS011;14353;46.070;13.222;2023-09-08T04:36:33;5.90;;;4.10;;
23376;SDS011;14353;46.070;13.222;2023-09-08T04:38:59;4.93;;;3.75;;
23376;SDS011;14353;46.070;13.222;2023-09-08T04:41:24;5.05;;;3.53;;
23376;SDS011;14353;46.070;13.222;2023-09-08T04:43:50;5.97;;;3.80;;
23376;SDS011;14353;46.070;13.222;2023-09-08T04:46:15;4.88;;;3.60;;
23376;SDS011;14353;46.070;13.222;2023-09-08T04:48:41;6.38;;;3.83;;
23376;SDS011;14353;46.070;13.222;2023-09-08T04:51:07;5.75;;;3.70;;
23376;SDS011;14353;46.070;13.222;2023-09-08T04:53:33;5.82;;;3.60;;
23376;SDS011;14353;46.070;13.222;2023-09-08T04:55:58;5.55;;;3.55;;
23376;SDS011;14353;46.070;13.222;2023-09-08T04:58:24;4.32;;;3.55;;
23376;SDS011;14353;46.070;13.222;2023-09-08T05:00:50;6.68;;;3.90;;
23376;SDS011;14353;46.070;13.222;2023-09-08T05:03:16;5.43;;;3.65;;
23376;SDS011;14353;46.070;13.222;2023-09-08T05:05:42;5.22;;;3.67;;
23376;SDS011;14353;46.070;13.222;2023-09-08T05:08:07;4.63;;;3.85;;
23376;SDS011;14353;46.070;13.222;2023-09-08T05:10:33;4.57;;;3.78;;
23376;SDS011;14353;46.070;13.222;2023-09-08T05:12:58;4.55;;;3.55;;
23376;SDS011;14353;46.070;13.222;2023-09-08T05:15:24;4.53;;;3.88;;
23376;SDS011;14353;46.070;13.222;2023-09-08T05:17:50;5.45;;;4.00;;
23376;SDS011;14353;46.070;13.222;2023-09-08T05:20:16;4.53;;;3.78;;
23376;SDS011;14353;46.070;13.222;2023-09-08T05:22:42;4.47;;;3.70;;
23376;SDS011;14353;46.070;13.222;2023-09-08T05:25:08;6.38;;;3.55;;
23376;SDS011;14353;46.070;13.222;2023-09-08T05:27:34;6.40;;;3.83;;
23376;SDS011;14353;46.070;13.222;2023-09-08T05:29:59;4.18;;;3.78;;
23376;SDS011;14353;46.070;13.222;2023-09-08T05:32:25;4.88;;;4.13;;
23376;SDS011;14353;46.070;13.222;2023-09-08T05:34:50;7.53;;;3.90;;
23376;SDS011;14353;46.070;13.222;2023-09-08T05:37:16;5.03;;;3.88;;
23376;SDS011;14353;46.070;13.222;2023-09-08T05:39:42;4.68;;;3.70;;
23376;SDS011;14353;46.070;13.222;2023-09-08T05:42:11;4.45;;;3.70;;
23376;SDS011;14353;46.070;13.222;2023-09-08T05:44:36;4.05;;;3.40;;
23376;SDS011;14353;46.070;13.222;2023-09-08T05:47:02;5.22;;;3.67;;
23376;SDS011;14353;46.070;13.222;2023-09-08T05:49:28;6.40;;;4.15;;
23376;SDS011;14353;46.070;13.222;2023-09-08T05:51:53;5.35;;;3.78;;
23376;SDS011;14353;46.070;13.222;2023-09-08T05:54:19;4.45;;;3.42;;
23376;SDS011;14353;46.070;13.222;2023-09-08T05:56:45;4.90;;;3.47;;
23376;SDS011;14353;46.070;13.222;2023-09-08T05:59:10;5.35;;;3.60;;
23376;SDS011;14353;46.070;13.222;2023-09-08T06:01:36;7.25;;;3.70;;
23376;SDS011;14353;46.070;13.222;2023-09-08T06:04:02;5.38;;;3.85;;
23376;SDS011;14353;46.070;13.222;2023-09-08T06:06:28;4.47;;;3.92;;
23376;SDS011;14353;46.070;13.222;2023-09-08T06:08:54;5.03;;;3.78;;
23376;SDS011;14353;46.070;13.222;2023-09-08T06:11:19;5.72;;;3.75;;
23376;SDS011;14353;46.070;13.222;2023-09-08T06:13:45;6.07;;;4.15;;
23376;SDS011;14353;46.070;13.222;2023-09-08T06:16:12;5.07;;;3.88;;
23376;SDS011;14353;46.070;13.222;2023-09-08T06:18:37;7.07;;;3.50;;
23376;SDS011;14353;46.070;13.222;2023-09-08T06:21:06;4.57;;;3.60;;
23376;SDS011;14353;46.070;13.222;2023-09-08T06:23:35;5.40;;;3.90;;
23376;SDS011;14353;46.070;13.222;2023-09-08T06:26:02;6.00;;;3.60;;
23376;SDS011;14353;46.070;13.222;2023-09-08T06:28:28;6.78;;;3.53;;
23376;SDS011;14353;46.070;13.222;2023-09-08T06:30:54;7.18;;;3.70;;
23376;SDS011;14353;46.070;13.222;2023-09-08T06:33:20;6.32;;;3.60;;
23376;SDS011;14353;46.070;13.222;2023-09-08T06:35:47;5.82;;;3.85;;
23376;SDS011;14353;46.070;13.222;2023-09-08T06:38:13;6.80;;;3.67;;
23376;SDS011;14353;46.070;13.222;2023-09-08T06:40:39;7.53;;;3.78;;
23376;SDS011;14353;46.070;13.222;2023-09-08T06:43:05;6.85;;;3.78;;
23376;SDS011;14353;46.070;13.222;2023-09-08T06:45:30;4.05;;;3.55;;
23376;SDS011;14353;46.070;13.222;2023-09-08T06:47:56;7.07;;;3.67;;
23376;SDS011;14353;46.070;13.222;2023-09-08T06:50:22;4.45;;;3.70;;
23376;SDS011;14353;46.070;13.222;2023-09-08T06:52:49;4.28;;;3.45;;
23376;SDS011;14353;46.070;13.222;2023-09-08T06:55:15;5.50;;;3.70;;
23376;SDS011;14353;46.070;13.222;2023-09-08T06:57:44;6.18;;;3.70;;
23376;SDS011;14353;46.070;13.222;2023-09-08T07:00:10;5.55;;;3.92;;
23376;SDS011;14353;46.070;13.222;2023-09-08T07:02:37;6.90;;;3.90;;
23376;SDS011;14353;46.070;13.222;2023-09-08T07:05:03;4.40;;;3.78;;
23376;SDS011;14353;46.070;13.222;2023-09-08T07:07:33;4.85;;;3.55;;
23376;SDS011;14353;46.070;13.222;2023-09-08T07:10:02;5.03;;;3.70;;
23376;SDS011;14353;46.070;13.222;2023-09-08T07:12:29;5.55;;;3.63;;
23376;SDS011;14353;46.070;13.222;2023-09-08T07:14:55;5.60;;;3.95;;
23376;SDS011;14353;46.070;13.222;2023-09-08T07:17:22;4.55;;;3.60;;
23376;SDS011;14353;46.070;13.222;2023-09-08T07:19:48;6.30;;;3.80;;
23376;SDS011;14353;46.070;13.222;2023-09-08T07:22:14;5.43;;;3.42;;
23376;SDS011;14353;46.070;13.222;2023-09-08T07:24:40;4.65;;;3.70;;
23376;SDS011;14353;46.070;13.222;2023-09-08T07:27:06;4.65;;;3.40;;
23376;SDS011;14353;46.070;13.222;2023-09-08T07:29:32;5.35;;;3.38;;
23376;SDS011;14353;46.070;13.222;2023-09-08T07:31:58;5.70;;;3.63;;
23376;SDS011;14353;46.070;13.222;2023-09-08T07:34:24;4.57;;;3.90;;
23376;SDS011;14353;46.070;13.222;2023-09-08T07:36:50;5.65;;;3.78;;
23376;SDS011;14353;46.070;13.222;2023-09-08T07:39:15;5.22;;;3.60;;
23376;SDS011;14353;46.070;13.222;2023-09-08T07:41:41;3.55;;;3.10;;
23376;SDS011;14353;46.070;13.222;2023-09-08T07:44:07;7.38;;;3.65;;
23376;SDS011;14353;46.070;13.222;2023-09-08T07:46:33;5.85;;;3.90;;
23376;SDS011;14353;46.070;13.222;2023-09-08T07:48:59;9.82;;;3.60;;
23376;SDS011;14353;46.070;13.222;2023-09-08T07:51:25;4.13;;;3.40;;
23376;SDS011;14353;46.070;13.222;2023-09-08T07:53:52;7.28;;;3.65;;
23376;SDS011;14353;46.070;13.222;2023-09-08T07:56:18;5.78;;;3.40;;
23376;SDS011;14353;46.070;13.222;2023-09-08T07:58:44;6.93;;;3.63;;
23376;SDS011;14353;46.070;13.222;2023-09-08T08:01:10;5.18;;;3.30;;
23376;SDS011;14353;46.070;13.222;2023-09-08T08:03:37;4.10;;;3.17;;
23376;SDS011;14353;46.070;13.222;2023-09-08T08:06:03;3.88;;;3.30;;
23376;SDS011;14353;46.070;13.222;2023-09-08T08:08:29;6.82;;;3.58;;
23376;SDS011;14353;46.070;13.222;2023-09-08T08:10:55;7.18;;;3.60;;
23376;SDS011;14353;46.070;13.222;2023-09-08T08:13:21;4.88;;;3.55;;
23376;SDS011;14353;46.070;13.222;2023-09-08T08:15:46;3.88;;;3.40;;
23376;SDS011;14353;46.070;13.222;2023-09-08T08:18:12;5.57;;;3.80;;
23376;SDS011;14353;46.070;13.222;2023-09-08T08:20:38;6.75;;;3.85;;
23376;SDS011;14353;46.070;13.222;2023-09-08T08:23:05;4.28;;;3.63;;
23376;SDS011;14353;46.070;13.222;2023-09-08T08:25:31;5.05;;;3.08;;
23376;SDS011;14353;46.070;13.222;2023-09-08T08:27:57;5.82;;;3.60;;
23376;SDS011;14353;46.070;13.222;2023-09-08T08:30:25;5.60;;;4.05;;
23376;SDS011;14353;46.070;13.222;2023-09-08T08:32:51;4.70;;;3.30;;
23376;SDS011;14353;46.070;13.222;2023-09-08T08:35:18;4.22;;;3.33;;
23376;SDS011;14353;46.070;13.222;2023-09-08T08:37:44;4.13;;;3.30;;
23376;SDS011;14353;46.070;13.222;2023-09-08T08:40:10;3.85;;;3.40;;
23376;SDS011;14353;46.070;13.222;2023-09-08T08:42:37;5.70;;;3.72;;
23376;SDS011;14353;46.070;13.222;2023-09-08T08:45:04;7.57;;;3.30;;
23376;SDS011;14353;46.070;13.222;2023-09-08T08:47:30;4.30;;;3.20;;
23376;SDS011;14353;46.070;13.222;2023-09-08T08:49:57;4.07;;;3.30;;
23376;SDS011;14353;46.070;13.222;2023-09-08T08:52:25;3.70;;;3.33;;
23376;SDS011;14353;46.070;13.222;2023-09-08T08:54:54;6.15;;;3.60;;
23376;SDS011;14353;46.070;13.222;2023-09-08T08:57:24;4.07;;;3.30;;
23376;SDS011;14353;46.070;13.222;2023-09-08T08:59:52;4.95;;;3.60;;
23376;SDS011;14353;46.070;13.222;2023-09-08T09:02:18;4.75;;;3.30;;
23376;SDS011;14353;46.070;13.222;2023-09-08T09:04:44;7.72;;;3.80;;
23376;SDS011;14353;46.070;13.222;2023-09-08T09:07:11;3.90;;;3.30;;
23376;SDS011;14353;46.070;13.222;2023-09-08T09:09:37;6.35;;;3.42;;
23376;SDS011;14353;46.070;13.222;2023-09-08T09:12:05;4.32;;;3.47;;
23376;SDS011;14353;46.070;13.222;2023-09-08T09:14:32;7.75;;;4.10;;
23376;SDS011;14353;46.070;13.222;2023-09-08T09:16:58;7.28;;;3.70;;
23376;SDS011;14353;46.070;13.222;2023-09-08T09:19:25;6.95;;;3.53;;
23376;SDS011;14353;46.070;13.222;2023-09-08T09:21:52;4.97;;;3.20;;
23376;SDS011;14353;46.070;13.222;2023-09-08T09:24:28;4.70;;;3.45;;
23376;SDS011;14353;46.070;13.222;2023-09-08T09:27:02;6.90;;;3.50;;
23376;SDS011;14353;46.070;13.222;2023-09-08T09:29:30;7.90;;;3.60;;
23376;SDS011;14353;46.070;13.222;2023-09-08T09:32:06;5.93;;;3.80;;
23376;SDS011;14353;46.070;13.222;2023-09-08T09:34:34;6.03;;;3.90;;
23376;SDS011;14353;46.070;13.222;2023-09-08T09:37:00;6.70;;;3.80;;
23376;SDS011;14353;46.070;13.222;2023-09-08T09:39:26;8.90;;;3.15;;
23376;SDS011;14353;46.070;13.222;2023-09-08T09:41:57;6.97;;;3.65;;
23376;SDS011;14353;46.070;13.222;2023-09-08T09:44:23;5.65;;;3.40;;
23376;SDS011;14353;46.070;13.222;2023-09-08T09:46:52;6.25;;;3.67;;
23376;SDS011;14353;46.070;13.222;2023-09-08T09:49:19;6.43;;;3.70;;
23376;SDS011;14353;46.070;13.222;2023-09-08T09:51:48;10.30;;;3.58;;
23376;SDS011;14353;46.070;13.222;2023-09-08T09:54:18;5.85;;;3.85;;
23376;SDS011;14353;46.070;13.222;2023-09-08T09:56:44;4.90;;;3.30;;
23376;SDS011;14353;46.070;13.222;2023-09-08T09:59:13;6.78;;;3.97;;
23376;SDS011;14353;46.070;13.222;2023-09-08T10:01:40;7.85;;;3.72;;
23376;SDS011;14353;46.070;13.222;2023-09-08T10:04:07;3.97;;;3.55;;
23376;SDS011;14353;46.070;13.222;2023-09-08T10:06:34;7.13;;;3.72;;
23376;SDS011;14353;46.070;13.222;2023-09-08T10:09:01;8.07;;;4.10;;
23376;SDS011;14353;46.070;13.222;2023-09-08T10:11:42;4.32;;;3.63;;
23376;SDS011;14353;46.070;13.222;2023-09-08T10:14:12;6.68;;;3.80;;
23376;SDS011;14353;46.070;13.222;2023-09-08T10:16:39;8.18;;;3.72;;
23376;SDS011;14353;46.070;13.222;2023-09-08T10:19:08;8.35;;;3.78;;
23376;SDS011;14353;46.070;13.222;2023-09-08T10:21:36;6.15;;;3.80;;
23376;SDS011;14353;46.070;13.222;2023-09-08T10:24:12;7.60;;;4.05;;
23376;SDS011;14353;46.070;13.222;2023-09-08T10:26:43;5.20;;;3.75;;
23376;SDS011;14353;46.070;13.222;2023-09-08T10:29:12;5.97;;;3.80;;
23376;SDS011;14353;46.070;13.222;2023-09-08T10:31:38;7.70;;;3.85;;
23376;SDS011;14353;46.070;13.222;2023-09-08T10:34:04;5.43;;;3.50;;
23376;SDS011;14353;46.070;13.222;2023-09-08T10:36:31;4.38;;;3.78;;
23376;SDS011;14353;46.070;13.222;2023-09-08T10:47:09;7.57;;;4.75;;
23376;SDS011;14353;46.070;13.222;2023-09-08T10:49:35;10.52;;;6.10;;
23376;SDS011;14353;46.070;13.222;2023-09-08T10:52:10;8.38;;;4.28;;
23376;SDS011;14353;46.070;13.222;2023-09-08T10:54:43;8.95;;;4.70;;
23376;SDS011;14353;46.070;13.222;2023-09-08T10:57:16;18.77;;;8.57;;
23376;SDS011;14353;46.070;13.222;2023-09-08T11:02:37;15.95;;;7.00;;
23376;SDS011;14353;46.070;13.222;2023-09-08T11:05:08;13.68;;;6.53;;
23376;SDS011;14353;46.070;13.222;2023-09-08T11:07:36;11.40;;;5.43;;
23376;SDS011;14353;46.070;13.222;2023-09-08T11:10:03;20.15;;;8.70;;
23376;SDS011;14353;46.070;13.222;2023-09-08T11:12:30;18.33;;;7.38;;
23376;SDS011;14353;46.070;13.222;2023-09-08T11:14:56;13.23;;;6.95;;
23376;SDS011;14353;46.070;13.222;2023-09-08T11:17:25;10.73;;;5.93;;
23376;SDS011;14353;46.070;13.222;2023-09-08T11:19:53;11.63;;;6.07;;
23376;SDS011;14353;46.070;13.222;2023-09-08T11:22:20;6.65;;;3.83;;
23376;SDS011;14353;46.070;13.222;2023-09-08T11:24:55;4.88;;;3.80;;
23376;SDS011;14353;46.070;13.222;2023-09-08T11:27:25;7.93;;;4.20;;
23376;SDS011;14353;46.070;13.222;2023-09-08T11:29:53;6.38;;;4.20;;
23376;SDS011;14353;46.070;13.222;2023-09-08T11:32:19;7.95;;;3.63;;
23376;SDS011;14353;46.070;13.222;2023-09-08T11:34:45;6.05;;;3.75;;
23376;SDS011;14353;46.070;13.222;2023-09-08T11:37:11;6.70;;;3.65;;
23376;SDS011;14353;46.070;13.222;2023-09-08T11:39:47;4.63;;;3.80;;
23376;SDS011;14353;46.070;13.222;2023-09-08T11:42:13;4.78;;;3.60;;
23376;SDS011;14353;46.070;13.222;2023-09-08T11:44:40;5.47;;;3.38;;
23376;SDS011;14353;46.070;13.222;2023-09-08T11:47:08;4.13;;;3.17;;
23376;SDS011;14353;46.070;13.222;2023-09-08T11:49:38;5.65;;;3.63;;
23376;SDS011;14353;46.070;13.222;2023-09-08T11:52:06;5.78;;;3.40;;
23376;SDS011;14353;46.070;13.222;2023-09-08T11:54:35;7.95;;;3.40;;
23376;SDS011;14353;46.070;13.222;2023-09-08T11:57:05;6.28;;;3.30;;
23376;SDS011;14353;46.070;13.222;2023-09-08T11:59:34;4.63;;;3.40;;
23376;SDS011;14353;46.070;13.222;2023-09-08T12:02:00;6.45;;;3.47;;
23376;SDS011;14353;46.070;13.222;2023-09-08T12:04:27;4.78;;;3.55;;
23376;SDS011;14353;46.070;13.222;2023-09-08T12:06:54;5.65;;;3.17;;
23376;SDS011;14353;46.070;13.222;2023-09-08T12:09:23;5.25;;;3.30;;
23376;SDS011;14353;46.070;13.222;2023-09-08T12:11:51;6.43;;;3.40;;
23376;SDS011;14353;46.070;13.222;2023-09-08T12:14:18;6.13;;;3.80;;
23376;SDS011;14353;46.070;13.222;2023-09-08T12:16:44;4.53;;;3.40;;
23376;SDS011;14353;46.070;13.222;2023-09-08T12:19:29;4.95;;;3.40;;
23376;SDS011;14353;46.070;13.222;2023-09-08T12:21:58;4.55;;;3.60;;
23376;SDS011;14353;46.070;13.222;2023-09-08T12:24:46;7.18;;;3.20;;
23376;SDS011;14353;46.070;13.222;2023-09-08T12:27:25;5.65;;;3.13;;
23376;SDS011;14353;46.070;13.222;2023-09-08T12:32:24;6.38;;;3.05;;
23376;SDS011;14353;46.070;13.222;2023-09-08T12:34:51;3.25;;;2.92;;
23376;SDS011;14353;46.070;13.222;2023-09-08T12:37:21;4.43;;;3.45;;
23376;SDS011;14353;46.070;13.222;2023-09-08T12:39:48;7.32;;;3.30;;
23376;SDS011;14353;46.070;13.222;2023-09-08T12:42:14;6.32;;;3.30;;
23376;SDS011;14353;46.070;13.222;2023-09-08T12:44:40;6.22;;;3.20;;
23376;SDS011;14353;46.070;13.222;2023-09-08T12:47:06;6.47;;;3.40;;
23376;SDS011;14353;46.070;13.222;2023-09-08T12:49:36;3.63;;;2.97;;
23376;SDS011;14353;46.070;13.222;2023-09-08T12:52:02;7.63;;;3.38;;
23376;SDS011;14353;46.070;13.222;2023-09-08T12:54:29;6.40;;;3.35;;
23376;SDS011;14353;46.070;13.222;2023-09-08T12:56:55;6.47;;;3.25;;
23376;SDS011;14353;46.070;13.222;2023-09-08T12:59:22;6.75;;;3.20;;
23376;SDS011;14353;46.070;13.222;2023-09-08T13:01:48;5.57;;;3.22;;
23376;SDS011;14353;46.070;13.222;2023-09-08T13:04:14;4.20;;;2.97;;
23376;SDS011;14353;46.070;13.222;2023-09-08T13:06:41;4.45;;;3.20;;
23376;SDS011;14353;46.070;13.222;2023-09-08T13:09:08;6.10;;;3.15;;
23376;SDS011;14353;46.070;13.222;2023-09-08T13:11:34;4.90;;;2.88;;
23376;SDS011;14353;46.070;13.222;2023-09-08T13:14:01;3.78;;;2.78;;
23376;SDS011;14353;46.070;13.222;2023-09-08T13:16:27;6.30;;;2.88;;
23376;SDS011;14353;46.070;13.222;2023-09-08T13:18:54;3.30;;;3.00;;
23376;SDS011;14353;46.070;13.222;2023-09-08T13:21:20;4.15;;;2.80;;
23376;SDS011;14353;46.070;13.222;2023-09-08T13:23:46;5.57;;;3.40;;
23376;SDS011;14353;46.070;13.222;2023-09-08T13:26:13;5.20;;;2.90;;
23376;SDS011;14353;46.070;13.222;2023-09-08T13:28:39;6.13;;;3.00;;
23376;SDS011;14353;46.070;13.222;2023-09-08T13:31:05;6.93;;;2.90;;
23376;SDS011;14353;46.070;13.222;2023-09-08T13:33:30;5.43;;;3.25;;
23376;SDS011;14353;46.070;13.222;2023-09-08T13:35:56;3.58;;;3.10;;
23376;SDS011;14353;46.070;13.222;2023-09-08T13:38:23;3.25;;;2.95;;
23376;SDS011;14353;46.070;13.222;2023-09-08T13:40:49;5.28;;;2.95;;
23376;SDS011;14353;46.070;13.222;2023-09-08T13:43:16;8.15;;;3.25;;
23376;SDS011;14353;46.070;13.222;2023-09-08T13:45:42;4.43;;;2.75;;
23376;SDS011;14353;46.070;13.222;2023-09-08T13:48:08;3.75;;;2.95;;
23376;SDS011;14353;46.070;13.222;2023-09-08T13:50:34;4.93;;;3.10;;
23376;SDS011;14353;46.070;13.222;2023-09-08T13:53:02;4.43;;;2.80;;
23376;SDS011;14353;46.070;13.222;2023-09-08T13:55:30;4.55;;;2.90;;
23376;SDS011;14353;46.070;13.222;2023-09-08T13:57:56;3.80;;;2.90;;
23376;SDS011;14353;46.070;13.222;2023-09-08T14:00:22;5.32;;;3.03;;
23376;SDS011;14353;46.070;13.222;2023-09-08T14:02:48;3.75;;;2.90;;
23376;SDS011;14353;46.070;13.222;2023-09-08T14:05:14;5.68;;;2.90;;
23376;SDS011;14353;46.070;13.222;2023-09-08T14:07:41;3.75;;;2.65;;
23376;SDS011;14353;46.070;13.222;2023-09-08T14:10:07;3.60;;;2.83;;
23376;SDS011;14353;46.070;13.222;2023-09-08T14:12:34;4.70;;;3.10;;
23376;SDS011;14353;46.070;13.222;2023-09-08T14:15:00;3.05;;;2.72;;
23376;SDS011;14353;46.070;13.222;2023-09-08T14:17:27;4.22;;;2.88;;
23376;SDS011;14353;46.070;13.222;2023-09-08T14:19:54;4.55;;;2.78;;
23376;SDS011;14353;46.070;13.222;2023-09-08T14:22:20;7.75;;;2.60;;
23376;SDS011;14353;46.070;13.222;2023-09-08T14:24:47;4.70;;;2.85;;
23376;SDS011;14353;46.070;13.222;2023-09-08T14:27:13;5.57;;;3.00;;
23376;SDS011;14353;46.070;13.222;2023-09-08T14:29:40;3.55;;;2.72;;
23376;SDS011;14353;46.070;13.222;2023-09-08T14:32:07;3.25;;;2.65;;
23376;SDS011;14353;46.070;13.222;2023-09-08T14:34:34;3.88;;;2.72;;
23376;SDS011;14353;46.070;13.222;2023-09-08T14:36:59;5.57;;;2.75;;
23376;SDS011;14353;46.070;13.222;2023-09-08T14:39:25;3.30;;;2.47;;
23376;SDS011;14353;46.070;13.222;2023-09-08T14:41:51;2.78;;;2.47;;
23376;SDS011;14353;46.070;13.222;2023-09-08T14:44:18;2.92;;;2.60;;
23376;SDS011;14353;46.070;13.222;2023-09-08T14:46:46;4.45;;;2.80;;